Time;durP1;ratioP1;P1;durP2;ratioP2;P2;SDS_P1;SDS_P2;PMS_P1;PMS_P2;Temp;Humidity;BMP_temperature;BMP_pressure;BME280_temperature;BME280_humidity;BME280_pressure;Samples;Min_cycle;Max_cycle;Signal;HPM_P1;HPM_P2
2021/03/08 00:00:58;;;;;;;;;;;;;;;20.60;51.63;101456.75;2085216;28;1868;-81
2021/03/08 00:01:59;;;;;;;;;;;;;;;20.59;51.77;101451.41;2083468;28;1808;-73
2021/03/08 00:02:59;;;;;;;;;;;;;;;20.58;51.85;101455.41;2087211;28;1999;-75
2021/03/08 00:04:00;;;;;;;;;;;;;;;20.59;51.80;101454.25;2084625;28;1796;-73
2021/03/08 00:05:01;;;;;;;;;;;;;;;20.58;51.61;101459.09;2087548;28;2075;-74
2021/03/08 00:06:04;;;;;;;;;;;;;;;20.59;51.73;101457.09;2083425;28;1741;-75
2021/03/08 00:07:05;;;;;;;;;;;;;;;20.59;51.54;101463.63;2085517;28;1985;-75
2021/03/08 00:08:06;;;;;;;;;;;;;;;20.60;51.70;101464.47;2087415;28;1963;-75
2021/03/08 00:09:07;;;;;;;;;;;;;;;20.59;51.58;101463.63;2080403;28;2035;-74
2021/03/08 00:10:07;;;;;;;;;;;;;;;20.60;51.72;101473.00;2083786;28;1940;-76
2021/03/08 00:11:08;;;;;;;;;;;;;;;20.61;51.62;101468.97;2084537;28;1817;-75
2021/03/08 00:12:09;;;;;;;;;;;;;;;20.60;51.56;101464.47;2083362;28;2221;-74
2021/03/08 00:13:10;;;;;;;;;;;;;;;20.60;51.67;101468.13;2083014;28;2066;-74
2021/03/08 00:14:10;;;;;;;;;;;;;;;20.60;51.47;101467.31;2085593;28;1765;-74
2021/03/08 00:15:11;;;;;;;;;;;;;;;20.61;51.53;101477.50;2086915;28;2123;-74
2021/03/08 00:16:12;;;;;;;;;;;;;;;20.61;51.42;101471.81;2083921;28;1790;-73
2021/03/08 00:17:13;;;;;;;;;;;;;;;20.60;51.50;101473.81;2088331;28;1745;-74
2021/03/08 00:18:14;;;;;;;;;;;;;;;20.61;51.57;101474.66;2083695;28;1921;-73
2021/03/08 00:19:15;;;;;;;;;;;;;;;20.60;51.46;101470.97;2084732;28;2225;-73
2021/03/08 00:20:16;;;;;;;;;;;;;;;20.61;51.57;101471.81;2083699;28;2126;-73
2021/03/08 00:21:16;;;;;;;;;;;;;;;20.60;51.57;101470.97;2080816;28;2237;-73
2021/03/08 00:22:17;;;;;;;;;;;;;;;20.60;51.55;101476.66;2081644;28;2126;-74
2021/03/08 00:23:18;;;;;;;;;;;;;;;20.61;51.51;101480.34;2082583;28;2071;-74
2021/03/08 00:24:18;;;;;;;;;;;;;;;20.60;51.33;101481.53;2081563;28;1808;-73
2021/03/08 00:25:19;;;;;;;;;;;;;;;20.60;51.54;101482.34;2082484;28;2117;-74
2021/03/08 00:26:20;;;;;;;;;;;;;;;20.61;51.52;101480.34;2087592;28;1729;-76
2021/03/08 00:27:21;;;;;;;;;;;;;;;20.61;51.50;101481.16;2083900;28;2047;-76
2021/03/08 00:28:21;;;;;;;;;;;;;;;20.61;51.63;101481.16;2083639;28;1944;-75
2021/03/08 00:29:22;;;;;;;;;;;;;;;20.62;51.57;101487.69;2082956;28;2039;-74
2021/03/08 00:30:23;;;;;;;;;;;;;;;20.61;51.52;101481.16;2084129;28;1908;-75
2021/03/08 00:31:24;;;;;;;;;;;;;;;20.61;51.51;101480.34;2069570;28;1763;-73
2021/03/08 00:32:25;;;;;;;;;;;;;;;20.61;51.52;101483.19;2066633;28;1930;-74
2021/03/08 00:33:26;;;;;;;;;;;;;;;20.61;51.48;101495.38;2085214;28;1676;-75
2021/03/08 00:34:27;;;;;;;;;;;;;;;20.61;51.47;101492.53;2076138;28;2104;-77
2021/03/08 00:35:28;;;;;;;;;;;;;;;20.62;51.40;101493.38;2077294;28;2225;-77
2021/03/08 00:36:29;;;;;;;;;;;;;;;20.61;51.53;101492.53;2080493;28;2051;-78
2021/03/08 00:37:33;;;;;;;;;;;;;;;20.62;51.42;101487.69;2083524;28;1804;-77
2021/03/08 00:38:33;;;;;;;;;;;;;;;20.62;51.39;101484.84;2083003;28;2087;-76
2021/03/08 00:39:34;;;;;;;;;;;;;;;20.62;51.58;101479.16;2085250;28;1784;-76
2021/03/08 00:40:35;;;;;;;;;;;;;;;20.62;51.49;101484.84;2075559;28;1939;-76
2021/03/08 00:41:36;;;;;;;;;;;;;;;20.62;51.47;101476.31;2069153;28;1835;-77
2021/03/08 00:42:37;;;;;;;;;;;;;;;20.63;51.51;101483.69;2076591;28;1909;-78
2021/03/08 00:43:38;;;;;;;;;;;;;;;20.62;51.44;101482.84;2077953;28;2033;-74
2021/03/08 00:44:39;;;;;;;;;;;;;;;20.63;51.47;101481.69;2083333;28;2146;-76
2021/03/08 00:45:41;;;;;;;;;;;;;;;20.63;51.49;101475.16;2074539;28;1914;-78
2021/03/08 00:46:42;;;;;;;;;;;;;;;20.63;51.48;101481.69;2076439;28;1867;-79
2021/03/08 00:47:43;;;;;;;;;;;;;;;20.64;51.57;101485.34;2084836;28;1792;-78
2021/03/08 00:48:44;;;;;;;;;;;;;;;20.64;51.59;101479.66;2076036;28;1887;-77
2021/03/08 00:49:45;;;;;;;;;;;;;;;20.63;51.50;101484.53;2075075;28;1913;-77
2021/03/08 00:50:46;;;;;;;;;;;;;;;20.63;51.55;101480.84;2083820;28;1829;-77
2021/03/08 00:51:46;;;;;;;;;;;;;;;20.63;51.55;101480.84;2083868;28;2171;-76
2021/03/08 00:52:47;;;;;;;;;;;;;;;20.63;51.47;101483.69;2082458;28;1829;-77
2021/03/08 00:53:48;;;;;;;;;;;;;;;20.62;51.38;101480.03;2084482;28;2268;-77
2021/03/08 00:54:49;;;;;;;;;;;;;;;20.63;51.56;101476.00;2082251;28;1961;-79
2021/03/08 00:55:49;;;;;;;;;;;;;;;20.63;51.36;101481.69;2076048;28;1956;-75
2021/03/08 00:56:50;;;;;;;;;;;;;;;20.64;51.48;101476.81;2072926;28;1978;-76
2021/03/08 00:58:07;;;;;;;;;;;;;;;20.64;51.39;101482.50;2085868;28;1811;-76
2021/03/08 00:59:08;;;;;;;;;;;;;;;20.64;51.35;101476.81;2084780;28;2219;-75
2021/03/08 01:00:09;;;;;;;;;;;;;;;20.64;51.42;101477.66;2086599;28;2060;-75
2021/03/08 01:01:10;;;;;;;;;;;;;;;20.64;51.67;101479.66;2086524;28;2051;-76
2021/03/08 01:02:11;;;;;;;;;;;;;;;20.65;51.50;101485.03;2085562;28;1965;-75
2021/03/08 01:03:11;;;;;;;;;;;;;;;20.65;51.61;101484.19;2085663;28;1945;-77
2021/03/08 01:04:12;;;;;;;;;;;;;;;20.65;51.56;101482.19;2084684;28;1875;-75
2021/03/08 01:05:14;;;;;;;;;;;;;;;20.66;51.65;101485.84;2085975;28;2365;-75
2021/03/08 01:06:15;;;;;;;;;;;;;;;20.66;51.52;101485.84;2082164;28;1960;-74
2021/03/08 01:07:16;;;;;;;;;;;;;;;20.65;51.65;101482.19;2075313;28;1886;-74
2021/03/08 01:08:17;;;;;;;;;;;;;;;20.66;51.67;101485.84;2076050;28;1938;-74
2021/03/08 01:09:18;;;;;;;;;;;;;;;20.66;51.37;101474.50;2082640;28;1910;-74
2021/03/08 01:10:19;;;;;;;;;;;;;;;20.66;51.52;101480.19;2080629;28;2186;-74
2021/03/08 01:11:19;;;;;;;;;;;;;;;20.66;51.63;101477.31;2076886;28;2114;-74
2021/03/08 01:12:20;;;;;;;;;;;;;;;20.65;51.61;101482.19;2077876;28;2222;-73
2021/03/08 01:13:21;;;;;;;;;;;;;;;20.65;51.53;101476.50;2083196;28;2237;-73
2021/03/08 01:14:23;;;;;;;;;;;;;;;20.65;51.61;101479.34;2083402;28;1834;-74
2021/03/08 01:15:24;;;;;;;;;;;;;;;20.65;51.68;101484.19;2083582;28;1890;-77
2021/03/08 01:16:25;;;;;;;;;;;;;;;20.65;51.60;101476.50;2081610;28;1819;-72
2021/03/08 01:17:26;;;;;;;;;;;;;;;20.66;51.59;101477.31;2074701;28;1883;-71
2021/03/08 01:18:27;;;;;;;;;;;;;;;20.65;51.56;101479.34;2069164;28;1860;-71
2021/03/08 01:19:29;;;;;;;;;;;;;;;20.65;51.33;101478.50;2076269;28;1867;-71
2021/03/08 01:20:29;;;;;;;;;;;;;;;20.64;51.63;101474.81;2079290;28;1785;-71
2021/03/08 01:21:30;;;;;;;;;;;;;;;20.65;51.35;101484.19;2074397;28;2134;-72
2021/03/08 01:22:31;;;;;;;;;;;;;;;20.64;51.50;101474.81;2076462;28;2064;-72
2021/03/08 01:23:32;;;;;;;;;;;;;;;20.64;51.31;101477.66;2083519;28;1864;-72
2021/03/08 01:24:33;;;;;;;;;;;;;;;20.65;51.52;101482.19;2070094;28;1865;-70
2021/03/08 01:25:35;;;;;;;;;;;;;;;20.65;51.54;101481.34;2069809;28;1794;-71
2021/03/08 01:26:36;;;;;;;;;;;;;;;20.64;51.57;101477.66;2066558;28;1817;-71
2021/03/08 01:27:37;;;;;;;;;;;;;;;20.66;51.36;101475.31;2066047;28;2009;-70
2021/03/08 01:28:38;;;;;;;;;;;;;;;20.65;51.39;101476.50;2064473;28;2111;-72
2021/03/08 01:29:39;;;;;;;;;;;;;;;20.65;51.51;101478.50;2067090;28;1914;-70
2021/03/08 01:30:39;;;;;;;;;;;;;;;20.65;51.57;101476.50;2065374;28;2443;-70
2021/03/08 01:31:41;;;;;;;;;;;;;;;20.66;51.45;101477.31;2067417;28;1839;-73
2021/03/08 01:32:42;;;;;;;;;;;;;;;20.67;51.52;101479.00;2066672;28;1768;-69
2021/03/08 01:33:43;;;;;;;;;;;;;;;20.66;51.57;101481.00;2067222;28;1865;-70
2021/03/08 01:34:43;;;;;;;;;;;;;;;20.67;51.77;101484.69;2068036;28;1829;-70
2021/03/08 01:35:44;;;;;;;;;;;;;;;20.67;51.97;101485.50;2066899;28;1798;-71
2021/03/08 01:36:45;;;;;;;;;;;;;;;20.68;51.76;101489.22;2067327;28;2111;-69
2021/03/08 01:37:46;;;;;;;;;;;;;;;20.69;51.77;101488.03;2070140;28;1841;-70
2021/03/08 01:38:46;;;;;;;;;;;;;;;20.69;51.87;101490.88;2067731;28;1887;-69
2021/03/08 01:39:47;;;;;;;;;;;;;;;20.68;51.83;101484.34;2067161;28;1812;-72
2021/03/08 01:40:48;;;;;;;;;;;;;;;20.68;51.74;101489.22;2064317;28;1754;-71
2021/03/08 01:41:48;;;;;;;;;;;;;;;20.65;51.79;101484.19;2067087;28;1857;-73
2021/03/08 01:42:49;;;;;;;;;;;;;;;20.65;51.77;101482.19;2065429;28;2096;-69
2021/03/08 01:43:50;;;;;;;;;;;;;;;20.65;51.59;101469.97;2068590;28;2131;-70
2021/03/08 01:44:51;;;;;;;;;;;;;;;20.66;51.81;101480.19;2065541;28;2191;-70
2021/03/08 01:45:51;;;;;;;;;;;;;;;20.66;51.68;101480.19;2067951;28;1816;-68
2021/03/08 01:46:52;;;;;;;;;;;;;;;20.66;51.67;101477.31;2065714;28;1775;-69
2021/03/08 01:47:53;;;;;;;;;;;;;;;20.65;51.44;101472.81;2066387;28;1809;-70
2021/03/08 01:48:54;;;;;;;;;;;;;;;20.66;51.49;101475.31;2067382;28;1996;-68
2021/03/08 01:49:55;;;;;;;;;;;;;;;20.66;51.58;101480.19;2067930;28;2154;-68
2021/03/08 01:50:56;;;;;;;;;;;;;;;20.65;51.53;101479.34;2066772;28;1813;-69
2021/03/08 01:51:57;;;;;;;;;;;;;;;20.64;51.63;101482.50;2067887;28;1826;-67
2021/03/08 01:52:58;;;;;;;;;;;;;;;20.67;51.52;101491.19;2067832;28;1799;-68
2021/03/08 01:53:59;;;;;;;;;;;;;;;20.68;51.66;101487.19;2067047;28;1914;-68
2021/03/08 01:55:00;;;;;;;;;;;;;;;20.68;51.71;101489.22;2069380;28;1892;-69
2021/03/08 01:56:00;;;;;;;;;;;;;;;20.67;51.72;101488.34;2065548;28;1985;-69
2021/03/08 01:57:01;;;;;;;;;;;;;;;20.67;51.36;101493.22;2065835;28;1814;-68
2021/03/08 01:58:02;;;;;;;;;;;;;;;20.68;51.85;101492.06;2067555;28;1858;-68
2021/03/08 01:59:02;;;;;;;;;;;;;;;20.68;51.64;101492.06;2067891;28;1901;-69
2021/03/08 02:00:03;;;;;;;;;;;;;;;20.68;51.64;101489.22;2067626;28;1878;-68
2021/03/08 02:01:04;;;;;;;;;;;;;;;20.68;51.56;101490.03;2068494;28;2139;-69
2021/03/08 02:02:05;;;;;;;;;;;;;;;20.68;51.73;101484.34;2068310;28;1754;-69
2021/03/08 02:03:06;;;;;;;;;;;;;;;20.69;51.61;101488.03;2070182;28;1970;-67
2021/03/08 02:04:07;;;;;;;;;;;;;;;20.68;51.68;101490.03;2069533;28;1043;-69
2021/03/08 02:05:08;;;;;;;;;;;;;;;20.69;51.77;101490.88;2065257;28;2172;-68
2021/03/08 02:06:08;;;;;;;;;;;;;;;20.69;51.70;101491.72;2065108;28;1900;-70
2021/03/08 02:07:09;;;;;;;;;;;;;;;20.69;51.64;101488.03;2064791;28;1847;-69
2021/03/08 02:08:10;;;;;;;;;;;;;;;20.69;51.77;101485.19;2068406;28;1758;-68
2021/03/08 02:09:11;;;;;;;;;;;;;;;20.68;51.55;101492.88;2066921;28;1807;-68
2021/03/08 02:10:11;;;;;;;;;;;;;;;20.68;51.66;101489.22;2067945;28;1985;-67
2021/03/08 02:11:12;;;;;;;;;;;;;;;20.69;51.78;101488.03;2066878;28;1838;-68
2021/03/08 02:12:13;;;;;;;;;;;;;;;20.68;51.67;101487.19;2070016;28;1806;-67
2021/03/08 02:13:13;;;;;;;;;;;;;;;20.68;51.60;101489.22;2069293;28;1858;-68
2021/03/08 02:14:14;;;;;;;;;;;;;;;20.68;51.67;101489.22;2068157;28;1801;-69
2021/03/08 02:15:15;;;;;;;;;;;;;;;20.68;51.71;101489.22;2067751;28;2353;-69
2021/03/08 02:16:16;;;;;;;;;;;;;;;20.69;51.70;101496.56;2067044;28;1878;-68
2021/03/08 02:17:17;;;;;;;;;;;;;;;20.68;51.54;101489.22;2066540;28;1957;-68
2021/03/08 02:18:18;;;;;;;;;;;;;;;20.68;51.75;101492.06;2065876;28;1950;-68
2021/03/08 02:19:19;;;;;;;;;;;;;;;20.68;51.72;101489.22;2069363;28;1989;-68
2021/03/08 02:20:19;;;;;;;;;;;;;;;20.68;51.64;101484.34;2067332;28;1830;-68
2021/03/08 02:21:20;;;;;;;;;;;;;;;20.69;51.75;101488.03;2066183;28;1924;-69
2021/03/08 02:22:21;;;;;;;;;;;;;;;20.69;51.82;101488.84;2069139;28;2038;-70
2021/03/08 02:23:22;;;;;;;;;;;;;;;20.70;51.84;101489.69;2077053;28;1791;-69
2021/03/08 02:24:23;;;;;;;;;;;;;;;20.71;51.79;101494.22;2082255;28;1936;-68
2021/03/08 02:25:24;;;;;;;;;;;;;;;20.70;51.96;101489.69;2086223;28;2073;-68
2021/03/08 02:26:25;;;;;;;;;;;;;;;20.70;51.94;101492.53;2085994;28;1849;-68
2021/03/08 02:27:26;;;;;;;;;;;;;;;20.70;51.97;101489.69;2081648;28;1840;-68
2021/03/08 02:28:27;;;;;;;;;;;;;;;20.69;52.04;101497.38;2084564;28;1853;-68
2021/03/08 02:29:27;;;;;;;;;;;;;;;20.70;51.98;101492.53;2084426;28;1914;-68
2021/03/08 02:30:28;;;;;;;;;;;;;;;20.71;52.00;101493.41;2081011;28;2178;-68
2021/03/08 02:31:29;;;;;;;;;;;;;;;20.71;51.96;101501.94;2085713;28;1749;-68
2021/03/08 02:32:30;;;;;;;;;;;;;;;20.70;51.86;101495.38;2083174;28;1832;-68
2021/03/08 02:33:31;;;;;;;;;;;;;;;20.71;51.96;101496.25;2082456;28;1749;-68
2021/03/08 02:34:32;;;;;;;;;;;;;;;20.69;51.96;101497.38;2082711;28;1911;-69
2021/03/08 02:35:33;;;;;;;;;;;;;;;20.70;52.02;101498.22;2083317;28;1973;-69
2021/03/08 02:36:33;;;;;;;;;;;;;;;20.71;51.98;101499.09;2075617;28;1812;-69
2021/03/08 02:37:34;;;;;;;;;;;;;;;20.71;51.94;101505.59;2073362;28;1991;-68
2021/03/08 02:38:35;;;;;;;;;;;;;;;20.70;52.02;101512.44;2084537;28;2060;-69
2021/03/08 02:39:36;;;;;;;;;;;;;;;20.71;52.08;101505.59;2087419;28;1777;-68
2021/03/08 02:40:37;;;;;;;;;;;;;;;20.72;52.13;101512.94;2076588;28;1905;-69
2021/03/08 02:41:38;;;;;;;;;;;;;;;20.72;52.04;101510.09;2070219;28;1839;-69
2021/03/08 02:42:39;;;;;;;;;;;;;;;20.73;52.12;101508.09;2064576;28;1819;-69
2021/03/08 02:43:39;;;;;;;;;;;;;;;20.72;52.07;101510.09;2072350;28;2190;-69
2021/03/08 02:44:40;;;;;;;;;;;;;;;20.72;52.21;101509.28;2084039;28;1817;-69
2021/03/08 02:45:41;;;;;;;;;;;;;;;20.73;52.14;101513.78;2083765;28;2026;-69
2021/03/08 02:46:42;;;;;;;;;;;;;;;20.71;52.01;101505.59;2082837;28;1930;-69
2021/03/08 02:47:43;;;;;;;;;;;;;;;20.72;52.06;101517.81;2082444;28;1825;-67
2021/03/08 02:48:44;;;;;;;;;;;;;;;20.72;52.11;101515.78;2082904;28;2015;-68
2021/03/08 02:49:45;;;;;;;;;;;;;;;20.72;52.06;101512.94;2075763;28;2950;-69
2021/03/08 02:50:46;;;;;;;;;;;;;;;20.72;52.20;101515.78;2074949;28;1795;-70
2021/03/08 02:51:47;;;;;;;;;;;;;;;20.73;52.20;101514.63;2087252;28;1785;-69
2021/03/08 02:52:47;;;;;;;;;;;;;;;20.72;52.09;101512.94;2081150;28;1887;-69
2021/03/08 02:53:48;;;;;;;;;;;;;;;20.73;52.04;101522.31;2081661;28;1804;-70
2021/03/08 02:54:49;;;;;;;;;;;;;;;20.72;52.15;101515.78;2080639;28;1944;-70
2021/03/08 02:55:49;;;;;;;;;;;;;;;20.73;52.16;101519.47;2079857;28;2122;-67
2021/03/08 02:56:50;;;;;;;;;;;;;;;20.71;52.14;101514.13;2081198;28;1831;-68
2021/03/08 02:57:51;;;;;;;;;;;;;;;20.72;51.92;101521.47;2083007;28;2138;-68
2021/03/08 02:58:52;;;;;;;;;;;;;;;20.72;52.06;101518.63;2085600;28;1702;-68
2021/03/08 02:59:53;;;;;;;;;;;;;;;20.72;52.02;101514.97;2086133;28;2074;-68
2021/03/08 03:00:53;;;;;;;;;;;;;;;20.72;51.83;101512.13;2086172;28;1824;-73
2021/03/08 03:01:55;;;;;;;;;;;;;;;20.70;51.89;101520.97;2082572;28;1808;-73
2021/03/08 03:02:56;;;;;;;;;;;;;;;20.69;51.86;101525.00;2084473;28;1888;-69
2021/03/08 03:03:57;;;;;;;;;;;;;;;20.68;51.94;101518.47;2082721;28;1837;-70
2021/03/08 03:04:58;;;;;;;;;;;;;;;20.69;51.83;101522.16;2080950;28;1880;-70
2021/03/08 03:05:58;;;;;;;;;;;;;;;20.69;51.87;101514.44;2082731;28;2026;-72
2021/03/08 03:07:00;;;;;;;;;;;;;;;20.69;51.87;101513.63;2081399;28;1979;-73
2021/03/08 03:08:02;;;;;;;;;;;;;;;20.71;51.85;101516.16;2082321;28;2020;-72
2021/03/08 03:09:03;;;;;;;;;;;;;;;20.69;51.81;101514.44;2084412;28;1980;-72
2021/03/08 03:10:04;;;;;;;;;;;;;;;20.70;51.87;101520.97;2085688;28;2144;-78
2021/03/08 03:11:05;;;;;;;;;;;;;;;20.71;51.92;101527.53;2083313;28;2193;-77
2021/03/08 03:12:05;;;;;;;;;;;;;;;20.68;51.71;101526.19;2086941;28;1482;-77
2021/03/08 03:13:06;;;;;;;;;;;;;;;20.67;51.87;101527.31;2082670;28;1968;-77
2021/03/08 03:14:07;;;;;;;;;;;;;;;20.65;51.94;101524.84;2083293;28;2123;-77
2021/03/08 03:15:07;;;;;;;;;;;;;;;20.64;51.80;101530.84;2083243;28;1803;-75
2021/03/08 03:16:08;;;;;;;;;;;;;;;20.63;51.85;101527.16;2086941;28;1791;-75
2021/03/08 03:17:09;;;;;;;;;;;;;;;20.62;51.72;101521.81;2086304;28;1833;-75
2021/03/08 03:18:10;;;;;;;;;;;;;;;20.62;51.71;101525.50;2086334;28;1784;-77
2021/03/08 03:19:11;;;;;;;;;;;;;;;20.62;51.68;101525.50;2072199;28;1796;-73
2021/03/08 03:20:12;;;;;;;;;;;;;;;20.63;51.64;101526.34;2073186;28;2056;-72
2021/03/08 03:21:13;;;;;;;;;;;;;;;20.63;51.57;101520.66;2071954;28;2070;-73
2021/03/08 03:22:14;;;;;;;;;;;;;;;20.63;51.53;101530.00;2065461;28;2247;-75
2021/03/08 03:23:15;;;;;;;;;;;;;;;20.65;51.53;101529.69;2073588;28;2048;-72
2021/03/08 03:24:15;;;;;;;;;;;;;;;20.65;51.46;101524.84;2074221;28;1789;-72
2021/03/08 03:25:16;;;;;;;;;;;;;;;20.63;51.35;101526.34;2075299;28;1807;-72
2021/03/08 03:26:17;;;;;;;;;;;;;;;20.64;51.45;101525.16;2074640;28;1790;-71
2021/03/08 03:27:18;;;;;;;;;;;;;;;20.65;51.36;101524.00;2074561;28;1805;-72
2021/03/08 03:28:18;;;;;;;;;;;;;;;20.64;51.45;101534.50;2077174;28;2099;-72
2021/03/08 03:29:19;;;;;;;;;;;;;;;20.63;51.44;101527.16;2073907;28;1840;-72
2021/03/08 03:30:20;;;;;;;;;;;;;;;20.64;51.31;101534.50;2074312;28;2114;-71
2021/03/08 03:31:21;;;;;;;;;;;;;;;20.65;51.38;101535.38;2072608;28;1868;-74
2021/03/08 03:32:21;;;;;;;;;;;;;;;20.65;51.45;101533.38;2073097;28;2174;-72
2021/03/08 03:33:22;;;;;;;;;;;;;;;20.65;51.52;101530.53;2076981;28;1906;-72
2021/03/08 03:34:23;;;;;;;;;;;;;;;20.65;51.44;101535.38;2077712;28;1732;-73
2021/03/08 03:35:24;;;;;;;;;;;;;;;20.65;51.34;101536.22;2073071;28;1790;-74
2021/03/08 03:36:25;;;;;;;;;;;;;;;20.65;51.45;101541.91;2077173;28;2056;-73
2021/03/08 03:37:26;;;;;;;;;;;;;;;20.66;51.49;101534.19;2074500;28;1822;-72
2021/03/08 03:38:27;;;;;;;;;;;;;;;20.65;51.34;101539.06;2076141;28;1793;-73
2021/03/08 03:39:28;;;;;;;;;;;;;;;20.66;51.40;101537.88;2074618;28;1844;-73
2021/03/08 03:40:28;;;;;;;;;;;;;;;20.66;51.49;101540.72;2072509;28;2000;-73
2021/03/08 03:41:29;;;;;;;;;;;;;;;20.69;51.60;101539.22;2072159;28;1803;-72
2021/03/08 03:42:30;;;;;;;;;;;;;;;20.69;51.54;101547.75;2072110;28;2066;-72
2021/03/08 03:43:30;;;;;;;;;;;;;;;20.69;51.65;101547.75;2072762;28;1921;-71
2021/03/08 03:44:31;;;;;;;;;;;;;;;20.69;51.60;101550.59;2075840;28;1837;-72
2021/03/08 03:45:32;;;;;;;;;;;;;;;20.69;51.42;101547.75;2076357;28;1730;-71
2021/03/08 03:46:33;;;;;;;;;;;;;;;20.69;51.72;101554.25;2082707;28;2197;-72
2021/03/08 03:47:35;;;;;;;;;;;;;;;20.69;51.41;101547.75;2071265;28;1771;-71
2021/03/08 03:48:37;;;;;;;;;;;;;;;20.69;51.41;101553.44;2061636;28;1871;-72
2021/03/08 03:49:38;;;;;;;;;;;;;;;20.69;51.50;101559.13;2077148;28;1918;-72
2021/03/08 03:50:39;;;;;;;;;;;;;;;20.69;51.41;101556.28;2078351;28;2206;-73
2021/03/08 03:51:39;;;;;;;;;;;;;;;20.69;51.47;101559.13;2076020;28;2078;-71
2021/03/08 03:52:40;;;;;;;;;;;;;;;20.69;51.35;101559.13;2073590;28;2070;-71
2021/03/08 03:53:41;;;;;;;;;;;;;;;20.68;51.43;101561.13;2074927;28;2043;-71
2021/03/08 03:54:42;;;;;;;;;;;;;;;20.69;51.34;101567.66;2077515;28;1764;-71
2021/03/08 03:55:42;;;;;;;;;;;;;;;20.69;51.40;101565.63;2074766;28;2084;-71
2021/03/08 03:56:43;;;;;;;;;;;;;;;20.69;51.40;101557.09;2073596;28;1754;-72
2021/03/08 03:57:44;;;;;;;;;;;;;;;20.69;51.26;101562.78;2076516;28;1897;-71
2021/03/08 03:58:45;;;;;;;;;;;;;;;20.69;51.25;101567.66;2078808;28;2037;-71
2021/03/08 03:59:45;;;;;;;;;;;;;;;20.69;51.25;101565.63;2076564;28;2122;-72
2021/03/08 04:00:46;;;;;;;;;;;;;;;20.69;51.24;101568.47;2076492;28;2093;-72
2021/03/08 04:01:47;;;;;;;;;;;;;;;20.69;51.20;101568.47;2079654;28;1738;-72
2021/03/08 04:02:48;;;;;;;;;;;;;;;20.69;51.22;101573.34;2077335;28;2098;-73
2021/03/08 04:03:50;;;;;;;;;;;;;;;20.69;51.26;101577.00;2077759;28;2114;-71
2021/03/08 04:04:50;;;;;;;;;;;;;;;20.69;51.27;101573.34;2076790;28;2086;-73
2021/03/08 04:05:51;;;;;;;;;;;;;;;20.69;51.33;101581.88;2074243;28;1889;-71
2021/03/08 04:06:52;;;;;;;;;;;;;;;20.69;51.31;101582.69;2076879;28;2142;-72
2021/03/08 04:07:54;;;;;;;;;;;;;;;20.69;51.33;101579.84;2075722;28;1870;-72
2021/03/08 04:08:55;;;;;;;;;;;;;;;20.69;51.32;101587.56;2074963;28;1793;-72
2021/03/08 04:09:56;;;;;;;;;;;;;;;20.68;51.31;101580.19;2075661;28;1998;-72
2021/03/08 04:10:57;;;;;;;;;;;;;;;20.68;51.27;101581.03;2076892;28;1784;-72
2021/03/08 04:11:58;;;;;;;;;;;;;;;20.69;51.18;101591.22;2076095;28;1822;-71
2021/03/08 04:13:01;;;;;;;;;;;;;;;20.68;51.25;101594.41;2075590;28;1911;-71
2021/03/08 04:14:02;;;;;;;;;;;;;;;20.68;51.25;101585.88;2078981;28;1819;-71
2021/03/08 04:15:03;;;;;;;;;;;;;;;20.68;51.04;101592.41;2076019;28;1926;-71
2021/03/08 04:16:03;;;;;;;;;;;;;;;20.68;51.11;101598.09;2074304;28;2162;-71
2021/03/08 04:17:04;;;;;;;;;;;;;;;20.68;51.28;101597.25;2077234;28;2081;-72
2021/03/08 04:18:05;;;;;;;;;;;;;;;20.67;51.23;101599.25;2078943;28;1781;-72
2021/03/08 04:19:06;;;;;;;;;;;;;;;20.68;51.17;101597.25;2073939;28;1864;-71
2021/03/08 04:20:07;;;;;;;;;;;;;;;20.68;51.09;101600.09;2074264;28;2005;-71
2021/03/08 04:21:08;;;;;;;;;;;;;;;20.68;51.12;101608.63;2074321;28;2087;-72
2021/03/08 04:22:09;;;;;;;;;;;;;;;20.68;51.24;101602.94;2075990;28;1836;-72
2021/03/08 04:23:10;;;;;;;;;;;;;;;20.67;51.17;101599.25;2076802;28;1932;-72
2021/03/08 04:24:10;;;;;;;;;;;;;;;20.68;51.09;101602.94;2081579;28;2035;-71
2021/03/08 04:25:11;;;;;;;;;;;;;;;20.68;51.07;101603.78;2085752;28;1702;-71
2021/03/08 04:26:12;;;;;;;;;;;;;;;20.68;51.04;101603.78;2081818;28;1937;-71
2021/03/08 04:27:13;;;;;;;;;;;;;;;20.68;51.22;101602.94;2084303;28;1840;-71
2021/03/08 04:28:14;;;;;;;;;;;;;;;20.68;51.15;101606.63;2084288;28;1939;-71
2021/03/08 04:29:15;;;;;;;;;;;;;;;20.68;51.02;101602.94;2083853;28;2047;-71
2021/03/08 04:30:16;;;;;;;;;;;;;;;20.69;51.12;101610.31;2087450;28;2274;-70
2021/03/08 04:31:17;;;;;;;;;;;;;;;20.68;51.20;101606.63;2075073;28;1791;-71
2021/03/08 04:32:19;;;;;;;;;;;;;;;20.69;51.25;101607.44;2074072;28;1759;-71
2021/03/08 04:33:20;;;;;;;;;;;;;;;20.69;51.19;101604.63;2074664;28;2024;-70
2021/03/08 04:34:22;;;;;;;;;;;;;;;20.70;50.82;101606.28;2074349;28;2083;-70
2021/03/08 04:35:22;;;;;;;;;;;;;;;20.69;51.08;101607.44;2072463;28;2123;-70
2021/03/08 04:36:23;;;;;;;;;;;;;;;20.69;51.16;101615.97;2084006;28;2252;-70
2021/03/08 04:37:24;;;;;;;;;;;;;;;20.69;51.17;101613.16;2083997;28;2167;-71
2021/03/08 04:38:25;;;;;;;;;;;;;;;20.69;50.97;101615.97;2085774;28;2074;-70
2021/03/08 04:39:26;;;;;;;;;;;;;;;20.69;51.07;101618.84;2084166;28;1856;-70
2021/03/08 04:40:26;;;;;;;;;;;;;;;20.69;51.06;101621.66;2087981;28;2224;-70
2021/03/08 04:41:27;;;;;;;;;;;;;;;20.69;50.98;101624.50;2086421;28;2071;-71
2021/03/08 04:42:29;;;;;;;;;;;;;;;20.68;51.10;101626.53;2085085;28;1801;-71
2021/03/08 04:43:30;;;;;;;;;;;;;;;20.68;50.92;101622.84;2085326;28;1879;-71
2021/03/08 04:44:31;;;;;;;;;;;;;;;20.66;50.82;101623.16;2075141;28;2245;-71
2021/03/08 04:45:32;;;;;;;;;;;;;;;20.68;50.84;101622.84;2074193;28;1803;-71
2021/03/08 04:46:33;;;;;;;;;;;;;;;20.68;50.92;101623.69;2068480;28;2096;-71
2021/03/08 04:47:34;;;;;;;;;;;;;;;20.68;50.94;101620.00;2077524;28;1721;-70
2021/03/08 04:48:36;;;;;;;;;;;;;;;20.68;50.87;101620.84;2068838;28;2191;-71
2021/03/08 04:49:37;;;;;;;;;;;;;;;20.68;51.03;101620.84;2060052;28;2151;-70
2021/03/08 04:50:38;;;;;;;;;;;;;;;20.68;50.90;101617.16;2075931;28;1958;-70
2021/03/08 04:51:38;;;;;;;;;;;;;;;20.69;50.84;101621.66;2076946;28;1825;-71
2021/03/08 04:52:39;;;;;;;;;;;;;;;20.69;50.93;101622.50;2075393;28;2024;-71
2021/03/08 04:53:40;;;;;;;;;;;;;;;20.69;50.82;101618.84;2087611;28;1656;-71
2021/03/08 04:54:43;;;;;;;;;;;;;;;20.69;50.83;101622.50;2085651;28;2099;-71
2021/03/08 04:55:44;;;;;;;;;;;;;;;20.68;50.94;101620.84;2075651;28;1829;-71
2021/03/08 04:56:45;;;;;;;;;;;;;;;20.69;50.93;101628.19;2073848;28;1874;-71
2021/03/08 04:57:46;;;;;;;;;;;;;;;20.68;50.78;101622.84;2077924;28;1944;-71
2021/03/08 04:58:48;;;;;;;;;;;;;;;20.68;50.98;101623.69;2069128;28;1994;-70
2021/03/08 04:59:50;;;;;;;;;;;;;;;20.69;51.01;101633.03;2068719;28;2136;-71
2021/03/08 05:00:57;;;;;;;;;;;;;;;20.68;50.97;101631.38;2075427;28;2059;-71
2021/03/08 05:01:58;;;;;;;;;;;;;;;20.68;50.87;101628.53;2082041;28;2115;-71
2021/03/08 05:02:59;;;;;;;;;;;;;;;20.68;50.94;101629.38;2081755;28;2071;-71
2021/03/08 05:04:00;;;;;;;;;;;;;;;20.68;50.92;101631.38;2082231;28;1750;-71
2021/03/08 05:05:01;;;;;;;;;;;;;;;20.69;50.74;101636.72;2074561;28;2238;-71
2021/03/08 05:06:02;;;;;;;;;;;;;;;20.68;50.92;101634.22;2073247;28;1961;-71
2021/03/08 05:07:03;;;;;;;;;;;;;;;20.68;50.90;101637.06;2076355;28;2054;-71
2021/03/08 05:08:04;;;;;;;;;;;;;;;20.67;50.80;101630.53;2069685;28;1858;-71
2021/03/08 05:09:05;;;;;;;;;;;;;;;20.67;50.74;101636.22;2076683;28;1869;-71
2021/03/08 05:10:05;;;;;;;;;;;;;;;20.68;50.78;101637.06;2074035;28;1990;-71
2021/03/08 05:11:06;;;;;;;;;;;;;;;20.68;50.67;101639.91;2074800;28;2075;-71
2021/03/08 05:12:07;;;;;;;;;;;;;;;20.68;50.71;101642.75;2083667;28;2054;-71
2021/03/08 05:13:08;;;;;;;;;;;;;;;20.68;50.76;101637.91;2083206;28;2031;-71
2021/03/08 05:14:10;;;;;;;;;;;;;;;20.68;50.77;101637.06;2083682;28;2011;-70
2021/03/08 05:15:11;;;;;;;;;;;;;;;20.68;50.78;101645.59;2085476;28;1793;-70
2021/03/08 05:16:12;;;;;;;;;;;;;;;20.67;51.07;101644.75;2084732;28;2154;-70
2021/03/08 05:17:13;;;;;;;;;;;;;;;20.68;50.76;101642.75;2081069;28;2149;-70
2021/03/08 05:18:15;;;;;;;;;;;;;;;20.67;50.72;101644.75;2075202;28;2222;-70